Brescia / Montichiari Airport LIPO

Flugplatz Daten

Name: Brescia / Montichiari Airport

Ident: LIPO

Lat: 45,42890167

Long: 10,33059978

Platzhöhe: 355 ft

IataCode: VBS

City: Brescia

Metar

2021/12/04 00:20
LIPO 040020Z AUTO 05004KT 350V100 //// // SCT170 03/M01 Q1015

Taf

2021/12/03 00:21
TAF LIPO 032300Z 0400/0424 VRB05KT CAVOK PROB30
TEMPO 0400/0408 1000 BCFG
TEMPO 0421/0424 RA
Gewünschte Webcam nicht vorhanden? Dann fügen Sie eine hinzu. Sie wird dann so schnell wie möglich freigeschaltet
Url: Title: